createdAt,value
2022-10-25T00:00:16.426Z,99.99
2022-10-25T00:01:17.150Z,99.99
2022-10-25T00:02:17.622Z,99.99
2022-10-25T00:03:18.360Z,99.99
2022-10-25T00:04:18.751Z,99.99
2022-10-25T00:05:19.764Z,99.99
2022-10-25T00:06:19.950Z,99.99
2022-10-25T00:07:20.584Z,99.99
2022-10-25T00:08:21.886Z,99.99
2022-10-25T00:09:22.195Z,99.99
2022-10-25T00:10:25.745Z,99.99
2022-10-25T00:11:24.137Z,99.99
2022-10-25T00:12:24.026Z,99.99
2022-10-25T00:13:24.332Z,99.99
2022-10-25T00:14:24.524Z,99.99
2022-10-25T00:15:25.457Z,99.99
2022-10-25T00:16:26.137Z,99.99
2022-10-25T00:17:26.773Z,99.99
2022-10-25T00:18:27.495Z,99.99
2022-10-25T00:19:28.711Z,99.99
2022-10-25T00:20:28.620Z,99.99
2022-10-25T00:21:29.213Z,99.99
2022-10-25T00:22:30.407Z,99.99
2022-10-25T00:23:30.311Z,99.99
2022-10-25T00:24:31.225Z,99.99
2022-10-25T00:25:31.451Z,99.99
2022-10-25T00:26:31.930Z,99.99
2022-10-25T00:27:32.116Z,99.99
2022-10-25T00:28:33.130Z,99.99
2022-10-25T00:29:34.041Z,99.99
2022-10-25T00:30:34.658Z,99.99
2022-10-25T00:31:35.855Z,99.99
2022-10-25T00:32:36.431Z,99.99
2022-10-25T00:33:36.579Z,99.99
2022-10-25T00:34:37.493Z,99.99
2022-10-25T00:35:37.808Z,99.99
2022-10-25T00:36:38.716Z,99.99
2022-10-25T00:37:39.254Z,99.99
2022-10-25T00:38:40.025Z,99.99
2022-10-25T00:39:40.204Z,99.99
2022-10-25T00:40:41.421Z,99.99
2022-10-25T00:41:42.038Z,99.99
2022-10-25T00:42:42.932Z,99.99
2022-10-25T00:43:43.762Z,99.99
2022-10-25T00:44:44.395Z,99.99
2022-10-25T00:45:44.760Z,99.99
2022-10-25T00:46:45.123Z,99.99
2022-10-25T00:47:46.099Z,99.99
2022-10-25T00:48:46.803Z,99.99
2022-10-25T00:49:48.007Z,99.99
2022-10-25T00:50:48.643Z,99.99
2022-10-25T00:51:49.273Z,99.99
2022-10-25T00:52:50.183Z,99.99
2022-10-25T00:53:51.111Z,99.99
2022-10-25T00:54:51.600Z,99.99
2022-10-25T00:55:51.828Z,99.99
2022-10-25T00:56:52.758Z,99.99
2022-10-25T00:57:53.421Z,99.99
2022-10-25T00:58:54.143Z,99.99
2022-10-25T00:59:54.043Z,99.99
2022-10-25T01:00:54.260Z,99.99
2022-10-25T01:01:55.404Z,99.99
2022-10-25T01:03:56.378Z,99.99
2022-10-25T01:04:56.598Z,99.99
2022-10-25T01:05:57.191Z,99.99
2022-10-25T01:06:57.828Z,99.99
2022-10-25T01:07:58.755Z,99.99
2022-10-25T01:08:59.054Z,99.99
2022-10-25T01:09:59.242Z,99.99
2022-10-25T01:10:59.735Z,99.99
2022-10-25T01:12:00.048Z,99.99
2022-10-25T01:13:00.634Z,99.99
2022-10-25T01:14:01.241Z,99.99
2022-10-25T01:15:01.425Z,99.99
2022-10-25T01:16:01.624Z,99.99
2022-10-25T01:17:02.518Z,99.99
2022-10-25T01:18:02.704Z,99.99
2022-10-25T01:19:03.417Z,99.99
2022-10-25T01:20:03.610Z,99.99
2022-10-25T01:21:03.496Z,99.99
2022-10-25T01:22:04.091Z,99.99
2022-10-25T01:23:05.301Z,99.99
2022-10-25T01:24:05.806Z,99.99
2022-10-25T01:25:05.700Z,99.99
2022-10-25T01:26:06.339Z,99.99
2022-10-25T01:27:06.952Z,99.99
2022-10-25T01:28:07.560Z,99.99
2022-10-25T01:29:08.549Z,99.99
2022-10-25T01:30:09.466Z,99.99
2022-10-25T01:31:09.828Z,99.99
2022-10-25T01:32:11.004Z,99.99
2022-10-25T01:33:11.640Z,99.99
2022-10-25T01:34:12.540Z,99.99
2022-10-25T01:35:13.158Z,99.99
2022-10-25T01:37:14.332Z,99.99
2022-10-25T01:38:14.825Z,99.99
2022-10-25T01:39:15.268Z,99.99
2022-10-25T01:40:16.194Z,99.99
2022-10-25T01:41:17.130Z,99.99
2022-10-25T01:42:17.763Z,99.99
2022-10-25T01:43:19.098Z,99.99
2022-10-25T01:44:19.429Z,99.99
2022-10-25T01:45:19.960Z,99.99
2022-10-25T01:46:20.174Z,99.99
2022-10-25T01:47:20.646Z,99.99
2022-10-25T01:48:21.548Z,99.99
2022-10-25T01:49:21.888Z,99.99
2022-10-25T01:50:22.106Z,99.99
2022-10-25T01:51:22.429Z,99.99
2022-10-25T01:52:23.040Z,99.99
2022-10-25T01:53:24.227Z,99.99
2022-10-25T01:54:24.160Z,99.99
2022-10-25T01:55:25.051Z,99.99
2022-10-25T01:56:25.971Z,99.99
2022-10-25T01:57:27.161Z,99.99
2022-10-25T01:58:28.044Z,99.99
2022-10-25T01:59:29.028Z,99.99
2022-10-25T02:00:29.341Z,99.99
2022-10-25T02:01:29.991Z,99.99
2022-10-25T02:02:29.829Z,99.99
2022-10-25T02:03:30.015Z,99.99
2022-10-25T02:04:30.939Z,99.99
2022-10-25T02:05:31.572Z,99.99
2022-10-25T02:06:31.857Z,99.99
2022-10-25T02:07:33.040Z,99.99
2022-10-25T02:08:33.949Z,99.99
2022-10-25T02:09:34.664Z,99.99
2022-10-25T02:10:35.865Z,99.99
2022-10-25T02:11:36.057Z,99.99
2022-10-25T02:12:36.551Z,99.99
2022-10-25T02:13:37.134Z,99.99
2022-10-25T02:14:37.462Z,99.99
2022-10-25T02:15:38.369Z,99.99
2022-10-25T02:16:39.286Z,99.99
2022-10-25T02:17:39.891Z,99.99
2022-10-25T02:18:40.079Z,99.99
2022-10-25T02:19:40.800Z,99.99
2022-10-25T02:20:43.049Z,99.99
2022-10-25T02:21:42.027Z,99.99
2022-10-25T02:22:42.358Z,99.99
2022-10-25T02:23:43.040Z,99.99
2022-10-25T02:24:43.965Z,99.99
2022-10-25T02:25:44.852Z,99.99
2022-10-25T02:26:45.909Z,99.99
2022-10-25T02:27:46.553Z,99.99
2022-10-25T02:28:46.891Z,99.99
2022-10-25T02:29:47.879Z,99.99
2022-10-25T02:30:48.782Z,99.99
2022-10-25T02:31:49.001Z,99.99
2022-10-25T02:32:49.192Z,99.99
2022-10-25T02:33:50.098Z,99.99
2022-10-25T02:34:50.021Z,99.99
2022-10-25T02:35:50.981Z,99.99
2022-10-25T02:36:51.186Z,99.99
2022-10-25T02:37:51.854Z,99.99
2022-10-25T02:38:52.127Z,99.99
2022-10-25T02:39:52.419Z,99.99
2022-10-25T02:40:52.314Z,99.99
2022-10-25T02:41:53.540Z,99.99
2022-10-25T02:42:54.023Z,99.99
2022-10-25T02:43:54.505Z,99.99
2022-10-25T02:44:55.140Z,99.99
2022-10-25T02:45:55.352Z,99.99
2022-10-25T02:46:55.715Z,99.99
2022-10-25T02:47:56.607Z,99.99
2022-10-25T02:48:56.805Z,99.99
2022-10-25T02:49:57.159Z,99.99
2022-10-25T02:50:58.075Z,99.99
2022-10-25T02:51:58.282Z,99.99
2022-10-25T02:52:59.207Z,99.99
2022-10-25T02:53:59.119Z,99.99
2022-10-25T02:54:59.745Z,99.99
2022-10-25T02:56:00.131Z,99.99
2022-10-25T02:57:01.052Z,99.99
2022-10-25T02:58:01.661Z,99.99
2022-10-25T02:59:02.556Z,99.99
2022-10-25T03:00:03.431Z,99.99
2022-10-25T03:01:03.719Z,99.99
2022-10-25T03:02:04.095Z,99.99
2022-10-25T03:03:04.303Z,99.99
2022-10-25T03:04:05.210Z,99.99
2022-10-25T03:05:06.130Z,99.99
2022-10-25T03:06:07.028Z,99.99
2022-10-25T03:07:07.334Z,99.99
2022-10-25T03:08:07.524Z,99.99
2022-10-25T03:09:08.507Z,99.99
2022-10-25T03:10:09.229Z,99.99
2022-10-25T03:11:09.439Z,99.99
2022-10-25T03:12:09.360Z,99.99
2022-10-25T03:13:09.974Z,99.99
2022-10-25T03:14:10.892Z,99.99
2022-10-25T03:15:11.526Z,99.99
2022-10-25T03:16:11.713Z,99.99
2022-10-25T03:17:12.351Z,99.99
2022-10-25T03:18:12.812Z,99.99
2022-10-25T03:19:13.300Z,99.99
2022-10-25T03:20:13.998Z,99.99
2022-10-25T03:21:15.348Z,99.99
2022-10-25T03:22:16.282Z,99.99
2022-10-25T03:23:17.173Z,99.99
2022-10-25T03:24:17.484Z,99.99
2022-10-25T03:25:18.406Z,99.99
2022-10-25T03:26:19.018Z,99.99
2022-10-25T03:27:20.237Z,99.99
2022-10-25T03:28:20.869Z,99.99
2022-10-25T03:29:21.778Z,99.99
2022-10-25T03:30:22.062Z,99.99
2022-10-25T03:31:22.691Z,99.99
2022-10-25T03:32:23.907Z,99.99
2022-10-25T03:33:24.188Z,99.99
2022-10-25T03:34:24.671Z,99.99
2022-10-25T03:35:25.304Z,99.99
2022-10-25T03:36:26.219Z,99.99
2022-10-25T03:37:26.112Z,99.99
2022-10-25T03:38:27.298Z,99.99
2022-10-25T03:39:27.928Z,99.99
2022-10-25T03:40:28.940Z,99.99
2022-10-25T03:41:28.851Z,99.99
2022-10-25T03:42:29.770Z,99.99
2022-10-25T03:43:30.661Z,99.99
2022-10-25T03:44:31.290Z,99.99
2022-10-25T03:45:32.198Z,99.99
2022-10-25T03:46:32.086Z,99.99
2022-10-25T03:47:32.701Z,99.99
2022-10-25T03:48:32.998Z,99.99
2022-10-25T03:49:33.904Z,99.99
2022-10-25T03:50:34.641Z,99.99
2022-10-25T03:51:35.140Z,99.99
2022-10-25T03:52:36.068Z,99.99
2022-10-25T03:53:36.256Z,99.99
2022-10-25T03:54:36.468Z,99.99
2022-10-25T03:55:37.388Z,99.99
2022-10-25T03:56:37.573Z,99.99
2022-10-25T03:57:37.804Z,99.99
2022-10-25T03:58:37.898Z,99.99
2022-10-25T03:59:38.806Z,99.99
2022-10-25T04:00:39.514Z,99.99
2022-10-25T04:01:40.568Z,99.99
2022-10-25T04:02:41.253Z,99.99
2022-10-25T04:03:41.942Z,99.99
2022-10-25T04:04:42.832Z,99.99
2022-10-25T04:05:43.185Z,99.99
2022-10-25T04:06:43.673Z,99.99
2022-10-25T04:07:44.101Z,99.99
2022-10-25T04:08:44.330Z,99.99
2022-10-25T04:09:44.816Z,99.99
2022-10-25T04:10:45.414Z,99.99
2022-10-25T04:11:46.022Z,99.99
2022-10-25T04:12:47.063Z,99.99
2022-10-25T04:13:47.206Z,99.99
2022-10-25T04:14:48.396Z,99.99
2022-10-25T04:15:49.008Z,99.99
2022-10-25T04:16:49.633Z,99.99
2022-10-25T04:17:51.051Z,99.99
2022-10-25T04:18:51.235Z,99.99
2022-10-25T04:19:51.845Z,99.99
2022-10-25T04:20:52.583Z,99.99
2022-10-25T04:21:53.481Z,99.99
2022-10-25T04:22:54.102Z,99.99
2022-10-25T04:23:54.707Z,99.99
2022-10-25T04:24:55.199Z,99.99
2022-10-25T04:25:55.831Z,99.99
2022-10-25T04:26:56.164Z,99.99
2022-10-25T04:27:57.376Z,99.99
2022-10-25T04:28:57.978Z,99.99
2022-10-25T04:29:58.870Z,99.99
2022-10-25T04:30:59.045Z,99.99
2022-10-25T04:31:59.934Z,99.99
2022-10-25T04:33:00.520Z,99.99
2022-10-25T04:34:01.393Z,99.99
2022-10-25T04:35:01.604Z,99.99
2022-10-25T04:36:02.241Z,99.99
2022-10-25T04:37:02.431Z,99.99
2022-10-25T04:50:10.232Z,99.99
2022-10-25T04:51:10.551Z,99.99
2022-10-25T04:52:11.470Z,99.99
2022-10-25T04:53:11.670Z,99.99
2022-10-25T04:54:12.159Z,99.99
2022-10-25T04:55:12.771Z,99.99
2022-10-25T04:56:13.407Z,99.99
2022-10-25T04:57:14.308Z,99.99
2022-10-25T04:58:15.225Z,99.99
2022-10-25T04:59:15.248Z,99.99
2022-10-25T05:00:16.435Z,99.99
2022-10-25T05:01:16.769Z,99.99
2022-10-25T05:02:16.793Z,99.99
2022-10-25T05:03:18.641Z,99.99
2022-10-25T05:04:17.768Z,99.99
2022-10-25T05:05:17.683Z,99.99
2022-10-25T05:06:17.928Z,99.99
2022-10-25T05:07:18.559Z,99.99
2022-10-25T05:08:18.744Z,99.99
2022-10-25T05:09:18.635Z,99.99
2022-10-25T05:10:19.522Z,99.99
2022-10-25T05:11:20.260Z,99.99
2022-10-25T05:12:20.272Z,99.99
2022-10-25T05:13:21.459Z,99.99
2022-10-25T05:14:22.370Z,99.99
2022-10-25T05:15:22.266Z,99.99
2022-10-25T05:16:22.907Z,99.99
2022-10-25T05:17:23.533Z,99.99
2022-10-25T05:18:24.116Z,99.99
2022-10-25T05:19:24.428Z,99.99
2022-10-25T05:20:25.794Z,99.99
2022-10-25T05:22:26.804Z,99.99
2022-10-25T05:23:27.427Z,99.99
2022-10-25T05:24:27.759Z,99.99
2022-10-25T05:25:28.715Z,99.99
2022-10-25T05:26:29.331Z,99.99
2022-10-25T05:27:30.260Z,99.99
2022-10-25T05:28:30.470Z,99.99
2022-10-25T05:29:30.809Z,99.99
2022-10-25T05:30:31.006Z,99.99
2022-10-25T05:31:31.326Z,99.99
2022-10-25T05:32:31.954Z,99.99
2022-10-25T05:33:32.851Z,99.99
2022-10-25T05:34:33.471Z,99.99
2022-10-25T05:35:33.686Z,99.99
2022-10-25T05:36:34.205Z,99.99
2022-10-25T05:37:34.430Z,99.99
2022-10-25T05:38:37.761Z,99.99
2022-10-25T05:39:34.914Z,99.99
2022-10-25T05:40:35.820Z,99.99
2022-10-25T05:41:41.607Z,99.99
2022-10-25T05:42:37.514Z,99.99
2022-10-25T05:43:37.508Z,99.99
2022-10-25T05:44:38.419Z,99.99
2022-10-25T05:45:38.311Z,99.99
2022-10-25T05:46:38.506Z,99.99
2022-10-25T05:47:39.422Z,99.99
2022-10-25T05:48:42.389Z,99.99
2022-10-25T05:49:40.282Z,99.99
2022-10-25T05:51:43.267Z,99.99
2022-10-25T05:52:43.859Z,99.99
2022-10-25T05:53:44.461Z,99.99
2022-10-25T05:54:45.353Z,99.99
2022-10-25T05:55:46.255Z,99.99
2022-10-25T05:56:46.639Z,99.99
2022-10-25T05:57:46.826Z,99.99
2022-10-25T05:58:46.744Z,99.99
2022-10-25T05:59:47.084Z,99.99
2022-10-25T06:00:48.014Z,99.99
2022-10-25T06:01:48.568Z,99.99
2022-10-25T06:02:49.240Z,99.99
2022-10-25T06:03:49.987Z,99.99
2022-10-25T06:04:56.810Z,99.99
2022-10-25T06:05:51.758Z,99.99
2022-10-25T06:06:52.275Z,99.99
2022-10-25T06:07:52.782Z,99.99
2022-10-25T06:08:53.268Z,99.99
2022-10-25T06:09:54.184Z,99.99
2022-10-25T06:10:54.579Z,99.99
2022-10-25T06:11:54.883Z,99.99
2022-10-25T06:12:55.602Z,99.99
2022-10-25T06:13:56.515Z,99.99
2022-10-25T06:14:57.128Z,99.99
2022-10-25T06:15:58.374Z,99.99
2022-10-25T06:16:59.290Z,99.99
2022-10-25T06:17:59.492Z,99.99
2022-10-25T06:18:59.973Z,99.99
2022-10-25T06:20:00.618Z,99.99
2022-10-25T06:21:00.962Z,99.99
2022-10-25T06:22:01.560Z,99.99
2022-10-25T06:23:01.774Z,99.99
2022-10-25T06:24:02.454Z,99.99
2022-10-25T06:25:03.348Z,99.99
2022-10-25T06:26:04.264Z,99.99
2022-10-25T06:27:04.757Z,99.99
2022-10-25T06:28:05.669Z,99.99
2022-10-25T06:29:06.583Z,99.99
2022-10-25T06:30:06.473Z,99.99
2022-10-25T06:31:07.142Z,99.99
2022-10-25T06:32:07.757Z,99.99
2022-10-25T06:33:07.947Z,99.99
2022-10-25T06:34:08.266Z,99.99
2022-10-25T06:35:08.903Z,99.99
2022-10-25T06:36:09.415Z,99.99
2022-10-25T06:37:09.961Z,99.99
2022-10-25T06:38:10.177Z,99.99
2022-10-25T06:39:12.302Z,99.99
2022-10-25T06:40:12.238Z,99.99
2022-10-25T06:41:12.979Z,99.99
2022-10-25T06:42:13.418Z,99.99
2022-10-25T06:43:14.047Z,99.99
2022-10-25T06:44:14.670Z,99.99
2022-10-25T06:45:15.692Z,99.99
2022-10-25T06:46:16.244Z,99.99
2022-10-25T06:47:23.088Z,99.99
2022-10-25T06:48:17.289Z,99.99
2022-10-25T06:49:18.040Z,99.99
2022-10-25T06:50:18.708Z,99.99
2022-10-25T06:51:19.652Z,99.99
2022-10-25T06:52:20.281Z,99.99
2022-10-25T06:53:20.934Z,99.99
2022-10-25T06:54:21.860Z,99.99
2022-10-25T06:55:21.763Z,99.99
2022-10-25T06:56:22.380Z,99.99
2022-10-25T06:57:22.279Z,99.99
2022-10-25T06:58:23.240Z,99.99
2022-10-25T06:59:23.146Z,99.99
2022-10-25T07:00:24.396Z,99.99
2022-10-25T07:01:25.208Z,99.99
2022-10-25T07:02:25.362Z,99.99
2022-10-25T07:03:25.373Z,99.99
2022-10-25T07:04:26.024Z,99.99
2022-10-25T07:05:26.915Z,99.99
2022-10-25T07:06:28.248Z,99.99
2022-10-25T07:07:28.891Z,99.99
2022-10-25T07:08:29.240Z,99.99
2022-10-25T07:09:30.148Z,99.99
2022-10-25T07:10:30.802Z,99.99
2022-10-25T07:11:31.391Z,99.99
2022-10-25T07:12:31.293Z,99.99
2022-10-25T07:13:31.777Z,99.99
2022-10-25T07:14:32.289Z,99.99
2022-10-25T07:15:33.622Z,99.99
2022-10-25T07:16:33.974Z,99.99
2022-10-25T07:17:34.465Z,99.99
2022-10-25T07:18:34.544Z,99.99
2022-10-25T07:19:35.793Z,99.99
2022-10-25T07:20:36.127Z,99.99
2022-10-25T07:21:37.366Z,99.99
2022-10-25T07:22:37.983Z,99.99
2022-10-25T07:23:38.652Z,99.99
2022-10-25T07:24:38.875Z,99.99
2022-10-25T07:25:39.543Z,99.99
2022-10-25T07:26:40.471Z,99.99
2022-10-25T07:27:41.384Z,99.99
2022-10-25T07:28:42.336Z,99.99
2022-10-25T07:29:42.678Z,99.99
2022-10-25T07:30:43.629Z,99.99
2022-10-25T07:31:44.546Z,99.99
2022-10-25T07:32:47.682Z,99.99
2022-10-25T07:33:45.370Z,99.99
2022-10-25T07:34:46.028Z,99.99
2022-10-25T07:36:10.932Z,99.99
2022-10-25T07:36:47.707Z,99.99
2022-10-25T07:37:48.313Z,99.99
2022-10-25T07:38:48.853Z,99.99
2022-10-25T07:39:48.772Z,99.99
2022-10-25T07:40:49.081Z,99.99
2022-10-25T07:41:49.708Z,99.99
2022-10-25T07:42:50.149Z,99.99
2022-10-25T07:43:50.776Z,99.99
2022-10-25T07:44:51.147Z,99.99
2022-10-25T07:45:51.272Z,99.99
2022-10-25T07:46:52.238Z,99.99
2022-10-25T07:47:53.627Z,99.99
2022-10-25T07:48:53.621Z,99.99
2022-10-25T07:49:53.818Z,99.99
2022-10-25T07:50:54.457Z,99.99
2022-10-25T07:51:54.858Z,99.99
2022-10-25T07:52:55.608Z,99.99
2022-10-25T07:53:55.859Z,98.24
2022-10-25T07:54:56.381Z,96.32
2022-10-25T07:55:56.589Z,96.7
2022-10-25T07:56:56.791Z,97.28
2022-10-25T07:57:56.755Z,96.99
2022-10-25T07:58:57.088Z,96.7
2022-10-25T07:59:57.770Z,96.61
2022-10-25T08:00:58.465Z,95.75
2022-10-25T08:01:59.198Z,94.98
2022-10-25T08:03:00.051Z,94.83
2022-10-25T08:04:00.979Z,93.82
2022-10-25T08:05:01.477Z,94.12
2022-10-25T08:06:02.413Z,94.12
2022-10-25T08:07:02.667Z,93.92
2022-10-25T08:08:03.596Z,93.2
2022-10-25T08:09:33.585Z,92.82
2022-10-25T08:10:04.345Z,93.1
2022-10-25T08:11:05.642Z,93.39
2022-10-25T08:12:06.247Z,94.59
2022-10-25T08:13:06.651Z,95.55
2022-10-25T08:14:07.144Z,96.61
2022-10-25T08:15:07.833Z,96.03
2022-10-25T08:16:08.742Z,95.26
2022-10-25T08:17:09.683Z,95.17
2022-10-25T08:18:09.731Z,94.31
2022-10-25T08:19:09.972Z,93.01
2022-10-25T08:20:11.200Z,91.71
2022-10-25T08:21:11.431Z,91.52
2022-10-25T08:22:11.746Z,90.94
2022-10-25T08:23:12.520Z,90.94
2022-10-25T08:24:12.993Z,91.04
2022-10-25T08:25:13.685Z,90.56
2022-10-25T08:26:14.468Z,90.9
2022-10-25T08:27:14.918Z,91.61
2022-10-25T08:28:16.141Z,92.63
2022-10-25T08:29:16.577Z,93.1
2022-10-25T08:30:17.081Z,94.88
2022-10-25T08:31:17.323Z,95.94
2022-10-25T08:32:17.519Z,95.55
2022-10-25T08:33:17.868Z,94.98
2022-10-25T08:34:18.801Z,95.55
2022-10-25T08:35:18.632Z,95.84
2022-10-25T08:36:19.307Z,96.42
2022-10-25T08:37:19.831Z,96.37
2022-10-25T08:38:20.395Z,96.66
2022-10-25T08:39:21.366Z,96.85
2022-10-25T08:40:21.293Z,97.71
2022-10-25T08:41:22.529Z,97.9
2022-10-25T08:42:22.832Z,97.23
2022-10-25T08:43:23.129Z,98.86
2022-10-25T08:44:23.739Z,98.52
2022-10-25T08:45:24.108Z,99.1
2022-10-25T08:46:24.316Z,99.96
2022-10-25T08:47:25.000Z,99.99
2022-10-25T08:48:25.634Z,99.99
2022-10-25T08:49:26.591Z,99.99
2022-10-25T08:50:27.520Z,99.99
2022-10-25T08:51:28.026Z,99.99
2022-10-25T08:52:28.763Z,99.99
2022-10-25T08:53:29.389Z,99.87
2022-10-25T08:54:30.028Z,99.99
2022-10-25T08:55:30.531Z,99.53
2022-10-25T08:56:31.013Z,98.77
2022-10-25T08:57:31.555Z,98.19
2022-10-25T08:58:32.773Z,97.28
2022-10-25T08:59:33.768Z,95.5
2022-10-25T09:00:33.986Z,92.91
2022-10-25T09:01:34.169Z,92
2022-10-25T09:02:35.189Z,92.1
2022-10-25T09:03:34.860Z,91.75
2022-10-25T09:04:35.597Z,90.07
2022-10-25T09:05:36.543Z,87.52
2022-10-25T09:06:37.332Z,85.25
2022-10-25T09:07:39.525Z,83.37
2022-10-25T09:08:39.094Z,81.01
2022-10-25T09:09:39.619Z,80.37
2022-10-25T09:10:39.864Z,80.56
2022-10-25T09:11:40.488Z,81.72
2022-10-25T09:12:41.513Z,80.85
2022-10-25T09:13:41.958Z,81.24
2022-10-25T09:14:42.285Z,80.94
2022-10-25T09:15:47.545Z,81.62
2022-10-25T09:16:43.749Z,81.52
2022-10-25T09:17:44.888Z,81.04
2022-10-25T09:18:45.536Z,79.5
2022-10-25T09:19:45.825Z,80.27
2022-10-25T09:20:46.950Z,80.66
2022-10-25T09:21:47.720Z,80.56
2022-10-25T09:22:47.988Z,80.71
2022-10-25T09:23:48.327Z,80.62
2022-10-25T09:24:48.552Z,81.48
2022-10-25T09:25:49.372Z,81.35
2022-10-25T09:26:50.024Z,81.83
2022-10-25T09:27:51.530Z,81.54
2022-10-25T09:28:51.752Z,81.45
2022-10-25T09:29:51.966Z,81.93
2022-10-25T09:30:52.290Z,82.21
2022-10-25T09:31:52.761Z,82.37
2022-10-25T09:32:52.760Z,82.89
2022-10-25T09:33:53.921Z,81.93
2022-10-25T09:34:54.381Z,80.77
2022-10-25T09:35:54.618Z,79.13
2022-10-25T09:36:54.874Z,78.94
2022-10-25T09:37:55.857Z,79.19
2022-10-25T09:38:56.099Z,80.15
2022-10-25T09:39:56.808Z,83.14
2022-10-25T09:40:57.497Z,84.06
2022-10-25T09:41:58.278Z,83.39
2022-10-25T09:42:59.694Z,83.96
2022-10-25T09:43:59.865Z,86.08
2022-10-25T09:45:00.086Z,86.18
2022-10-25T09:46:00.551Z,84.06
2022-10-25T09:47:01.198Z,83.48
2022-10-25T09:48:01.930Z,83.96
2022-10-25T09:49:02.915Z,84.63
2022-10-25T09:50:03.268Z,85.88
2022-10-25T09:51:04.524Z,86.65
2022-10-25T09:52:04.750Z,83.86
2022-10-25T09:53:04.758Z,83.04
2022-10-25T09:54:05.421Z,81.12
2022-10-25T09:55:06.354Z,81.7
2022-10-25T09:56:07.276Z,81.73
2022-10-25T09:57:08.214Z,80.04
2022-10-25T09:58:09.133Z,78.79
2022-10-25T09:59:09.344Z,76.9
2022-10-25T10:00:09.564Z,75.65
2022-10-25T10:01:09.887Z,76.36
2022-10-25T10:02:10.628Z,74.95
2022-10-25T10:03:11.165Z,74.37
2022-10-25T10:04:12.125Z,74.02
2022-10-25T10:05:12.323Z,74.51
2022-10-25T10:06:12.948Z,73.93
2022-10-25T10:07:13.264Z,73.28
2022-10-25T10:08:13.975Z,73
2022-10-25T10:09:14.507Z,72.26
2022-10-25T10:10:15.573Z,73.65
2022-10-25T10:11:15.702Z,71.91
2022-10-25T10:12:16.224Z,68.66
2022-10-25T10:13:16.449Z,66.63
2022-10-25T10:14:17.214Z,67.59
2022-10-25T10:15:17.726Z,68.24
2022-10-25T10:16:18.640Z,68.14
2022-10-25T10:17:19.272Z,68.52
2022-10-25T10:18:20.549Z,69.88
2022-10-25T10:19:21.479Z,69.14
2022-10-25T10:20:22.152Z,68.27
2022-10-25T10:21:23.102Z,65.85
2022-10-25T10:22:24.059Z,66.82
2022-10-25T10:23:24.743Z,67.4
2022-10-25T10:24:25.400Z,68.56
2022-10-25T10:25:25.624Z,68.85
2022-10-25T10:26:26.256Z,69.62
2022-10-25T10:27:26.160Z,68.3
2022-10-25T10:28:27.125Z,67.43
2022-10-25T10:29:27.637Z,67.33
2022-10-25T10:30:28.280Z,66.56
2022-10-25T10:31:29.632Z,68.01
2022-10-25T10:32:30.599Z,66.98
2022-10-25T10:33:30.853Z,63.11
2022-10-25T10:34:32.196Z,63.46
2022-10-25T10:35:32.426Z,62.79
2022-10-25T10:36:32.630Z,62.4
2022-10-25T10:37:33.550Z,63.43
2022-10-25T10:38:34.700Z,63.53
2022-10-25T10:39:34.937Z,62.76
2022-10-25T10:40:35.888Z,65.63
2022-10-25T10:41:36.610Z,65.72
2022-10-25T10:42:36.590Z,64.47
2022-10-25T10:43:37.166Z,64.56
2022-10-25T10:44:38.222Z,66.5
2022-10-25T10:45:39.455Z,68.72
2022-10-25T10:46:39.802Z,68.46
2022-10-25T10:47:40.008Z,68.04
2022-10-25T10:48:47.427Z,66.72
2022-10-25T10:49:41.627Z,67.46
2022-10-25T10:50:46.254Z,64.89
2022-10-25T10:51:50.909Z,65.82
2022-10-25T10:52:43.165Z,65.72
2022-10-25T10:53:43.507Z,63.98
2022-10-25T10:54:43.862Z,63.69
2022-10-25T10:55:44.822Z,64.24
2022-10-25T10:56:45.377Z,63.66
2022-10-25T10:57:45.871Z,63.76
2022-10-25T10:58:48.589Z,64.69
2022-10-25T10:59:46.739Z,66.17
2022-10-25T11:00:47.517Z,67.52
2022-10-25T11:01:48.755Z,66.05
2022-10-25T11:02:49.724Z,66.46
2022-10-25T11:04:05.249Z,66.53
2022-10-25T11:04:52.309Z,66.72
2022-10-25T11:05:52.395Z,65.95
2022-10-25T11:06:53.322Z,66.33
2022-10-25T11:07:54.287Z,66.72
2022-10-25T11:08:54.531Z,67.07
2022-10-25T11:09:55.060Z,67.81
2022-10-25T11:10:55.578Z,67.97
2022-10-25T11:11:55.787Z,69.19
2022-10-25T11:12:56.499Z,70.06
2022-10-25T11:13:56.700Z,70.64
2022-10-25T11:14:57.745Z,71.56
2022-10-25T11:15:58.467Z,71.56
2022-10-25T11:16:59.362Z,71.18
2022-10-25T11:17:59.289Z,71.66
2022-10-25T11:19:00.229Z,72.05
2022-10-25T11:20:01.145Z,72.05
2022-10-25T11:21:01.363Z,72.81
2022-10-25T11:22:01.259Z,72.24
2022-10-25T11:23:05.085Z,73.49
2022-10-25T11:24:02.823Z,72.63
2022-10-25T11:25:02.982Z,72.59
2022-10-25T11:26:03.299Z,73.07
2022-10-25T11:27:04.237Z,73.36
2022-10-25T11:28:04.464Z,74.03
2022-10-25T11:29:05.010Z,75.28
2022-10-25T11:30:05.941Z,75.67
2022-10-25T11:31:06.568Z,73.65
2022-10-25T11:32:07.792Z,72.2
2022-10-25T11:33:08.418Z,72.11
2022-10-25T11:34:13.064Z,73.1
2022-10-25T11:35:09.853Z,71.76
2022-10-25T11:36:11.080Z,73.2
2022-10-25T11:37:11.708Z,73.58
2022-10-25T11:38:12.914Z,73.1
2022-10-25T11:39:14.018Z,71.89
2022-10-25T11:40:14.769Z,74.3
2022-10-25T11:41:15.100Z,74.4
2022-10-25T11:42:16.063Z,75.36
2022-10-25T11:43:16.383Z,74.78
2022-10-25T11:44:17.466Z,74.2
2022-10-25T11:45:17.721Z,74.49
2022-10-25T11:46:18.060Z,73.37
2022-10-25T11:47:19.017Z,72.6
2022-10-25T11:48:19.926Z,72.21
2022-10-25T11:49:21.136Z,71.83
2022-10-25T11:50:21.058Z,72.83
2022-10-25T11:51:21.983Z,72.73
2022-10-25T11:52:22.482Z,71.03
2022-10-25T11:53:22.396Z,70.45
2022-10-25T11:54:23.432Z,70.84
2022-10-25T11:55:23.775Z,71.42
2022-10-25T11:56:24.802Z,72.67
2022-10-25T11:57:25.017Z,71.03
2022-10-25T11:58:25.349Z,70.16
2022-10-25T11:59:25.856Z,69.39
2022-10-25T12:01:27.944Z,70.16
2022-10-25T12:02:28.490Z,70.36
2022-10-25T12:03:28.595Z,72
2022-10-25T12:04:35.909Z,71.51
2022-10-25T12:05:30.043Z,70.45
2022-10-25T12:06:30.700Z,69.9
2022-10-25T12:07:31.195Z,69.13
2022-10-25T12:08:31.700Z,70.29
2022-10-25T12:09:32.399Z,70.78
2022-10-25T12:10:32.972Z,69.9
2022-10-25T12:11:33.624Z,69.04
2022-10-25T12:12:33.839Z,68.26
2022-10-25T12:13:33.891Z,68.36
2022-10-25T12:14:34.200Z,67.88
2022-10-25T12:15:35.160Z,68.26
2022-10-25T12:16:35.380Z,67.78
2022-10-25T12:17:36.311Z,68.46
2022-10-25T12:18:36.215Z,68.26
2022-10-25T12:19:36.933Z,68.84
2022-10-25T12:20:37.973Z,67.94
2022-10-25T12:21:38.928Z,69
2022-10-25T12:22:39.167Z,68.55
2022-10-25T12:23:39.495Z,68.23
2022-10-25T12:24:40.531Z,68.65
2022-10-25T12:25:40.820Z,69
2022-10-25T12:26:41.290Z,68.55
2022-10-25T12:27:41.479Z,69.81
2022-10-25T12:28:41.804Z,69.58
2022-10-25T12:29:42.728Z,69.9
2022-10-25T12:30:42.932Z,70.29
2022-10-25T12:31:43.873Z,67.59
2022-10-25T12:32:44.710Z,67.11
2022-10-25T12:33:44.715Z,67.88
2022-10-25T12:34:45.914Z,68.36
2022-10-25T12:35:45.968Z,66.17
2022-10-25T12:36:47.203Z,67.43
2022-10-25T12:37:53.823Z,67.91
2022-10-25T12:38:48.362Z,66.85
2022-10-25T12:39:49.700Z,67.69
2022-10-25T12:40:50.485Z,67.82
2022-10-25T12:41:51.548Z,68.01
2022-10-25T12:42:52.955Z,66.36
2022-10-25T12:43:53.540Z,66.36
2022-10-25T12:44:53.825Z,67.52
2022-10-25T12:45:56.010Z,68.68
2022-10-25T12:46:54.603Z,67.82
2022-10-25T12:47:54.814Z,68.59
2022-10-25T12:48:55.173Z,68.3
2022-10-25T12:49:55.696Z,68.78
2022-10-25T12:50:56.105Z,69.07
2022-10-25T12:51:56.023Z,68.88
2022-10-25T12:52:57.356Z,68.2
2022-10-25T12:53:57.319Z,69.81
2022-10-25T12:54:58.795Z,68.68
2022-10-25T12:55:58.747Z,66.75
2022-10-25T12:56:59.095Z,67.72
2022-10-25T12:57:59.756Z,66.75
2022-10-25T12:59:00.679Z,67.04
2022-10-25T13:00:01.313Z,68.3
2022-10-25T13:01:02.554Z,67.04
2022-10-25T13:02:02.463Z,66.17
2022-10-25T13:03:03.453Z,65.5
2022-10-25T13:04:04.070Z,66.75
2022-10-25T13:05:04.684Z,68.01
2022-10-25T13:06:05.311Z,67.52
2022-10-25T13:07:05.508Z,66.27
2022-10-25T13:08:05.500Z,68.01
2022-10-25T13:09:06.119Z,69.36
2022-10-25T13:10:07.154Z,70.23
2022-10-25T13:11:07.807Z,69.1
2022-10-25T13:12:08.861Z,67.66
2022-10-25T13:13:09.370Z,68.24
2022-10-25T13:14:09.999Z,68.14
2022-10-25T13:15:10.931Z,66.43
2022-10-25T13:16:11.263Z,64.56
2022-10-25T13:17:11.497Z,64.56
2022-10-25T13:18:11.405Z,65.05
2022-10-25T13:19:12.392Z,64.18